createdAt,value
2023-03-15T04:13:28.518Z,1.50
2023-03-15T04:19:30.012Z,4.43
2023-03-15T04:25:40.679Z,3.03
2023-03-15T04:29:12.121Z,2.17
2023-03-15T04:33:58.656Z,2.40
2023-03-15T04:39:49.592Z,3.10
2023-03-15T04:43:00.743Z,2.90
2023-03-15T04:46:43.137Z,2.87
2023-03-15T04:50:52.345Z,2.63
2023-03-15T04:53:40.402Z,2.70
2023-03-15T04:57:19.478Z,3.60
2023-03-15T05:00:46.534Z,3.70
2023-03-15T05:04:01.354Z,3.20
2023-03-15T05:08:34.200Z,3.27
2023-03-15T05:23:09.106Z,3.10
2023-03-15T05:26:32.185Z,2.90
2023-03-15T05:29:55.503Z,3.13
2023-03-15T05:33:24.195Z,3.27
2023-03-15T05:37:31.494Z,2.97
2023-03-15T05:44:50.175Z,2.70
2023-03-15T05:52:36.556Z,3.30
2023-03-15T05:59:31.997Z,2.97
2023-03-15T06:39:58.783Z,3.70
2023-03-15T06:43:29.007Z,3.00
2023-03-15T07:02:13.930Z,2.80
2023-03-15T07:05:40.814Z,3.33
2023-03-15T07:11:34.771Z,2.72
2023-03-15T07:14:32.740Z,2.75
2023-03-15T07:17:12.003Z,2.50
2023-03-15T07:20:12.418Z,2.75
2023-03-15T07:23:00.409Z,3.47
2023-03-15T07:25:37.640Z,3.03
2023-03-15T07:28:12.105Z,3.60
2023-03-15T07:31:07.730Z,3.72
2023-03-15T07:33:54.737Z,3.60
2023-03-15T07:37:02.598Z,3.38
2023-03-15T07:39:45.622Z,3.28
2023-03-15T07:42:26.250Z,3.20
2023-03-15T07:45:09.393Z,4.15
2023-03-15T07:48:00.594Z,3.42
2023-03-15T07:50:40.857Z,3.97
2023-03-15T07:53:41.350Z,3.27
2023-03-15T07:56:48.678Z,3.40
2023-03-15T08:00:17.715Z,3.80
2023-03-15T08:02:47.057Z,3.97
2023-03-15T08:05:43.484Z,4.28
2023-03-15T08:08:18.765Z,5.05
2023-03-15T08:11:14.301Z,5.13
2023-03-15T08:14:05.170Z,5.13
2023-03-15T08:16:52.114Z,3.97
2023-03-15T08:19:32.206Z,3.50
2023-03-15T08:22:10.250Z,5.07
2023-03-15T08:27:47.976Z,3.55
2023-03-15T08:30:48.754Z,3.78
2023-03-15T08:33:22.005Z,4.03
2023-03-15T08:36:15.119Z,4.25
2023-03-15T08:38:51.629Z,4.45
2023-03-15T08:42:24.256Z,3.80
2023-03-15T08:45:24.580Z,3.85
2023-03-15T08:52:00.575Z,4.38
2023-03-15T08:55:36.422Z,3.97
2023-03-15T08:57:51.266Z,4.57
2023-03-15T09:01:00.823Z,4.20
2023-03-15T09:03:39.862Z,4.00
2023-03-15T09:06:29.991Z,3.78
2023-03-15T09:09:38.282Z,4.40
2023-03-15T09:16:07.041Z,5.63
2023-03-15T09:18:53.604Z,5.93
2023-03-15T09:21:52.955Z,5.15
2023-03-15T09:24:39.255Z,4.82
2023-03-15T09:27:39.616Z,4.32
2023-03-15T09:31:00.157Z,4.80
2023-03-15T09:33:40.291Z,4.03
2023-03-15T09:44:31.025Z,4.43
2023-03-15T09:47:42.058Z,3.67
2023-03-15T09:50:47.857Z,3.50
2023-03-15T09:53:40.054Z,3.05
2023-03-15T09:56:52.257Z,4.07
2023-03-15T10:00:49.118Z,4.50
2023-03-15T10:04:18.631Z,2.97
2023-03-15T10:27:31.782Z,2.85
2023-03-15T10:50:51.480Z,3.35
2023-03-15T10:54:13.481Z,3.72
2023-03-15T11:00:52.865Z,4.05
2023-03-15T11:08:41.003Z,4.15
2023-03-15T11:25:06.746Z,4.47
2023-03-15T11:28:25.999Z,4.70
2023-03-15T11:35:22.159Z,3.30
2023-03-15T11:38:56.165Z,3.33
2023-03-15T11:45:50.727Z,3.85
2023-03-15T11:49:18.665Z,3.97
2023-03-15T11:52:03.215Z,3.80
2023-03-15T11:55:28.411Z,4.00
2023-03-15T12:03:36.130Z,3.13
2023-03-15T12:18:46.728Z,3.53
2023-03-15T13:05:33.843Z,2.78
2023-03-15T13:12:09.811Z,2.72
2023-03-15T13:16:55.988Z,3.05
2023-03-15T13:18:39.276Z,2.70
2023-03-15T13:21:52.771Z,2.53
2023-03-15T13:29:36.097Z,3.15
2023-03-15T13:32:31.511Z,3.22
2023-03-15T13:36:19.044Z,2.92
2023-03-15T13:39:04.819Z,3.65
2023-03-15T13:45:43.121Z,3.88
2023-03-15T13:48:49.557Z,3.17
2023-03-15T13:59:08.118Z,3.03
2023-03-15T14:09:55.457Z,3.53
2023-03-15T14:14:08.942Z,3.22
2023-03-15T14:41:41.305Z,3.38
2023-03-15T15:03:04.626Z,3.25
2023-03-15T15:13:14.660Z,3.20
2023-03-15T15:25:53.791Z,3.92
2023-03-15T15:29:06.965Z,4.00
2023-03-15T15:31:59.282Z,3.75
2023-03-15T15:46:40.050Z,3.30
2023-03-15T15:50:28.128Z,2.85
2023-03-15T15:57:12.110Z,4.03
2023-03-15T16:00:24.717Z,3.88
2023-03-15T16:03:45.774Z,3.70
2023-03-15T16:06:41.581Z,3.97
2023-03-15T16:10:28.333Z,4.82
2023-03-15T16:13:11.434Z,6.22
2023-03-15T16:16:04.620Z,7.43
2023-03-15T16:18:56.410Z,6.43
2023-03-15T16:21:50.453Z,6.63
2023-03-15T16:24:57.761Z,4.88
2023-03-15T16:27:31.478Z,6.78
2023-03-15T16:30:26.654Z,8.82
2023-03-15T16:33:39.368Z,4.78
2023-03-15T16:36:35.466Z,5.83
2023-03-15T16:43:42.925Z,6.90
2023-03-15T16:47:15.719Z,10.10
2023-03-15T16:50:08.070Z,9.57
2023-03-15T16:56:25.403Z,6.47
2023-03-15T16:59:17.372Z,9.13
2023-03-15T17:01:56.438Z,13.77
2023-03-15T17:04:32.410Z,11.60
2023-03-15T17:07:37.280Z,10.03
2023-03-15T17:10:42.731Z,11.97
2023-03-15T17:13:45.259Z,11.70
2023-03-15T17:20:12.893Z,10.13
2023-03-15T17:23:20.719Z,11.47
2023-03-15T17:29:19.039Z,12.70
2023-03-15T17:32:54.742Z,12.97
2023-03-15T17:35:35.134Z,13.73
2023-03-15T17:38:26.218Z,19.57
2023-03-15T17:41:09.254Z,21.73
2023-03-15T18:35:04.138Z,33.47
2023-03-15T18:43:38.619Z,28.90
2023-03-15T18:55:27.701Z,33.87
2023-03-15T18:58:52.630Z,31.57
2023-03-15T19:10:25.641Z,35.67
2023-03-15T19:13:15.216Z,40.47
2023-03-15T19:16:37.171Z,47.27
2023-03-15T19:19:23.639Z,47.70
2023-03-15T19:22:16.011Z,50.17
2023-03-15T19:35:46.614Z,40.10
2023-03-15T19:47:01.203Z,42.67
2023-03-15T20:02:12.745Z,30.50
2023-03-15T20:05:01.482Z,31.63
2023-03-15T20:07:40.360Z,30.10
2023-03-15T20:10:38.116Z,29.93
2023-03-15T20:17:21.609Z,30.57
2023-03-15T20:20:02.093Z,30.37
2023-03-15T20:22:34.306Z,45.50
2023-03-15T20:25:18.594Z,50.73
2023-03-15T20:31:22.804Z,48.13
2023-03-15T20:34:35.221Z,44.73
2023-03-15T20:37:14.140Z,45.43
2023-03-15T20:39:50.299Z,42.40
2023-03-15T20:42:20.004Z,36.43
2023-03-15T20:44:52.775Z,34.43
2023-03-15T20:47:24.918Z,29.83
2023-03-15T20:49:59.583Z,26.73
2023-03-15T20:52:29.735Z,27.77
2023-03-15T20:54:58.311Z,25.97
2023-03-15T20:57:37.157Z,27.30
2023-03-15T21:00:13.550Z,24.37
2023-03-15T21:02:46.741Z,24.77
2023-03-15T21:05:27.508Z,24.40
2023-03-15T21:07:58.061Z,25.50
2023-03-15T21:10:34.186Z,24.90
2023-03-15T21:13:10.075Z,25.23
2023-03-15T21:15:48.255Z,23.93
2023-03-15T21:18:25.956Z,25.10
2023-03-15T21:21:13.060Z,25.50
2023-03-15T21:23:52.766Z,28.47
2023-03-15T21:26:22.546Z,28.37
2023-03-15T21:29:09.556Z,31.83
2023-03-15T21:31:38.450Z,30.07
2023-03-15T21:34:13.984Z,31.80
2023-03-15T21:37:09.736Z,34.77
2023-03-15T21:39:43.645Z,33.77
2023-03-15T21:42:14.125Z,36.87
2023-03-15T21:44:49.820Z,33.60
2023-03-15T21:47:24.740Z,33.27
2023-03-15T21:49:57.017Z,34.47
2023-03-15T21:52:27.856Z,33.30
2023-03-15T21:55:04.251Z,31.70
2023-03-15T21:57:34.165Z,30.20
2023-03-15T22:00:16.368Z,28.70
2023-03-15T22:02:49.384Z,25.37
2023-03-15T22:05:18.363Z,26.63
2023-03-15T22:07:57.705Z,25.17
2023-03-15T22:10:28.642Z,25.17
2023-03-15T22:12:59.178Z,24.40
2023-03-15T22:15:28.098Z,23.50
2023-03-15T22:17:56.674Z,22.07
2023-03-15T22:20:25.384Z,22.97
2023-03-15T22:23:13.727Z,22.37
2023-03-15T22:26:00.287Z,21.67
2023-03-15T22:28:37.639Z,22.20
2023-03-15T22:31:13.053Z,22.20
2023-03-15T22:33:44.045Z,20.90
2023-03-15T22:36:20.169Z,22.03
2023-03-15T22:38:58.980Z,21.83
2023-03-15T22:41:30.699Z,22.37
2023-03-15T22:44:05.167Z,20.93
2023-03-15T22:46:37.834Z,21.90
2023-03-15T22:49:10.717Z,21.63
2023-03-15T22:51:41.908Z,21.00
2023-03-15T22:54:13.208Z,20.83
2023-03-15T22:56:44.377Z,21.33
2023-03-15T22:59:17.137Z,20.87
2023-03-15T23:01:45.692Z,20.77
2023-03-15T23:04:17.129Z,21.70
